createdAt,value
2018-12-30T00:01:24.808Z,2.56
2018-12-30T00:04:31.783Z,2.56
2018-12-30T00:07:39.325Z,2.60
2018-12-30T00:10:46.323Z,2.62
2018-12-30T00:13:53.284Z,2.65
2018-12-30T00:16:59.947Z,2.69
2018-12-30T00:20:07.383Z,2.70
2018-12-30T00:23:15.831Z,2.72
2018-12-30T00:26:22.877Z,2.77
2018-12-30T00:29:29.872Z,2.77
2018-12-30T00:32:36.896Z,2.76
2018-12-30T00:35:45.047Z,2.73
2018-12-30T00:38:51.793Z,2.72
2018-12-30T00:41:58.559Z,2.74
2018-12-30T00:45:05.560Z,2.72
2018-12-30T00:48:16.089Z,2.68
2018-12-30T00:51:23.274Z,2.74
2018-12-30T00:54:30.293Z,2.76
2018-12-30T00:57:37.413Z,2.72
2018-12-30T01:00:44.215Z,2.77
2018-12-30T01:03:51.050Z,2.90
2018-12-30T01:06:57.836Z,2.86
2018-12-30T01:10:07.821Z,2.81
2018-12-30T01:13:14.825Z,2.75
2018-12-30T01:16:21.823Z,2.73
2018-12-30T01:19:28.556Z,2.76
2018-12-30T01:22:36.231Z,2.77
2018-12-30T01:25:43.167Z,2.77
2018-12-30T01:28:50.495Z,2.75
2018-12-30T01:31:57.515Z,2.76
2018-12-30T01:35:05.740Z,2.74
2018-12-30T01:38:15.849Z,2.73
2018-12-30T01:41:22.972Z,2.67
2018-12-30T01:44:30.156Z,2.68
2018-12-30T01:47:37.162Z,2.63
2018-12-30T01:50:44.067Z,2.65
2018-12-30T01:53:52.165Z,2.60
2018-12-30T01:56:59.168Z,2.57
2018-12-30T02:00:06.944Z,2.56
2018-12-30T02:03:13.790Z,2.52
2018-12-30T02:06:20.996Z,2.53
2018-12-30T02:09:28.016Z,2.52
2018-12-30T02:12:35.479Z,2.50
2018-12-30T02:15:42.468Z,2.42
2018-12-30T02:18:49.752Z,2.47
2018-12-30T02:21:56.494Z,2.48
2018-12-30T02:25:03.828Z,2.54
2018-12-30T02:28:13.678Z,2.59
2018-12-30T02:31:20.401Z,2.64
2018-12-30T02:34:27.714Z,2.62
2018-12-30T02:37:34.680Z,2.61
2018-12-30T02:40:41.735Z,2.67
2018-12-30T02:43:48.535Z,2.66
2018-12-30T02:46:55.645Z,2.72
2018-12-30T02:50:02.668Z,2.77
2018-12-30T02:53:10.210Z,2.79
2018-12-30T02:56:17.272Z,2.86
2018-12-30T02:59:25.201Z,2.87
2018-12-30T03:02:32.142Z,2.88
2018-12-30T03:05:39.536Z,2.90
2018-12-30T03:08:46.371Z,2.88
2018-12-30T03:11:53.365Z,2.92
2018-12-30T03:15:00.823Z,2.90
2018-12-30T03:18:07.691Z,2.92
2018-12-30T03:21:14.524Z,2.92
2018-12-30T03:24:21.261Z,2.91
2018-12-30T03:27:28.378Z,2.89
2018-12-30T03:30:35.319Z,2.90
2018-12-30T03:33:42.281Z,2.91
2018-12-30T03:36:49.449Z,2.95
2018-12-30T03:39:56.494Z,2.93
2018-12-30T03:43:03.571Z,2.95
2018-12-30T03:46:10.576Z,2.92
2018-12-30T03:49:17.293Z,2.96
2018-12-30T03:52:24.537Z,2.98
2018-12-30T03:55:31.401Z,2.97
2018-12-30T03:58:38.170Z,3.00
2018-12-30T04:01:44.905Z,3.01
2018-12-30T04:04:51.689Z,3.03
2018-12-30T04:07:58.670Z,3.10
2018-12-30T04:11:05.634Z,3.09
2018-12-30T04:14:12.587Z,3.09
2018-12-30T04:17:20.022Z,3.11
2018-12-30T04:20:28.453Z,3.18
2018-12-30T04:23:35.984Z,3.15
2018-12-30T04:26:42.948Z,3.15
2018-12-30T04:29:50.128Z,3.15
2018-12-30T04:32:57.089Z,3.17
2018-12-30T04:36:03.817Z,3.17
2018-12-30T04:39:10.533Z,3.25
2018-12-30T04:42:17.893Z,3.29
2018-12-30T04:45:24.767Z,3.49
2018-12-30T04:48:31.947Z,4.08
2018-12-30T04:51:38.926Z,4.15
2018-12-30T04:54:45.681Z,4.20
2018-12-30T04:57:52.378Z,4.31
2018-12-30T05:00:59.446Z,4.44
2018-12-30T05:04:06.346Z,4.53
2018-12-30T05:07:13.277Z,4.71
2018-12-30T05:10:20.276Z,4.86
2018-12-30T05:13:27.100Z,4.79
2018-12-30T05:16:37.371Z,4.85
2018-12-30T05:19:44.570Z,4.79
2018-12-30T05:22:51.449Z,4.83
2018-12-30T05:25:58.420Z,4.89
2018-12-30T05:29:05.244Z,4.82
2018-12-30T05:32:12.430Z,4.95
2018-12-30T05:35:20.335Z,4.93
2018-12-30T05:38:27.347Z,4.95
2018-12-30T05:41:34.259Z,4.88
2018-12-30T05:44:41.385Z,4.83
2018-12-30T05:47:51.777Z,4.86
2018-12-30T05:50:58.848Z,4.82
2018-12-30T05:54:05.791Z,4.80
2018-12-30T05:57:13.010Z,4.74
2018-12-30T06:00:19.747Z,4.72
2018-12-30T06:03:26.813Z,4.72
2018-12-30T06:06:33.789Z,4.65
2018-12-30T06:09:41.246Z,4.58
2018-12-30T06:12:50.922Z,4.55
2018-12-30T06:15:57.968Z,4.45
2018-12-30T06:19:04.901Z,4.35
2018-12-30T06:22:12.343Z,4.24
2018-12-30T06:25:19.352Z,4.19
2018-12-30T06:28:26.372Z,4.19
2018-12-30T06:31:33.323Z,4.14
2018-12-30T06:34:43.287Z,4.15
2018-12-30T06:37:50.334Z,4.14
2018-12-30T06:40:57.096Z,4.06
2018-12-30T06:44:03.823Z,4.07
2018-12-30T06:47:10.880Z,4.01
2018-12-30T06:50:17.841Z,4.00
2018-12-30T06:53:24.875Z,3.98
2018-12-30T06:56:31.588Z,3.94
2018-12-30T06:59:39.193Z,3.95
2018-12-30T07:02:46.088Z,4.00
2018-12-30T07:05:53.035Z,4.11
2018-12-30T07:09:00.173Z,4.16
2018-12-30T07:12:07.173Z,4.14
2018-12-30T07:15:14.143Z,4.14
2018-12-30T07:18:21.099Z,4.21
2018-12-30T07:21:28.037Z,4.25
2018-12-30T07:24:35.549Z,4.29
2018-12-30T07:27:45.064Z,4.27
2018-12-30T07:30:53.615Z,4.13
2018-12-30T07:34:00.629Z,4.28
2018-12-30T07:37:07.919Z,4.27
2018-12-30T07:40:15.198Z,4.26
2018-12-30T07:43:24.716Z,4.18
2018-12-30T07:46:31.734Z,4.18
2018-12-30T07:49:38.765Z,4.17
2018-12-30T07:52:45.900Z,4.22
2018-12-30T07:55:52.902Z,4.16
2018-12-30T07:58:59.595Z,4.25
2018-12-30T08:02:06.927Z,4.20
2018-12-30T08:05:13.649Z,4.32
2018-12-30T08:08:20.633Z,4.18
2018-12-30T08:11:27.660Z,4.26
2018-12-30T08:14:37.307Z,4.13
2018-12-30T08:17:44.265Z,4.17
2018-12-30T08:20:53.569Z,4.15
2018-12-30T08:24:00.400Z,4.24
2018-12-30T08:27:07.487Z,4.20
2018-12-30T08:30:14.408Z,4.19
2018-12-30T08:33:21.781Z,4.24
2018-12-30T08:36:29.131Z,4.25
2018-12-30T08:39:36.370Z,4.23
2018-12-30T08:42:43.144Z,4.24
2018-12-30T08:45:50.028Z,4.20
2018-12-30T08:48:56.752Z,4.19
2018-12-30T08:52:03.496Z,4.23
2018-12-30T08:55:10.439Z,4.23
2018-12-30T08:58:17.268Z,4.24
2018-12-30T09:01:28.255Z,4.28
2018-12-30T09:04:32.670Z,4.30
2018-12-30T09:07:39.653Z,4.30
2018-12-30T09:10:47.037Z,4.32
2018-12-30T09:13:54.074Z,4.38
2018-12-30T09:17:01.142Z,4.40
2018-12-30T09:20:08.106Z,4.37
2018-12-30T09:23:14.940Z,4.32
2018-12-30T09:26:22.265Z,4.31
2018-12-30T09:29:30.663Z,4.41
2018-12-30T09:32:37.583Z,4.43
2018-12-30T09:35:44.959Z,4.46
2018-12-30T09:38:51.652Z,4.50
2018-12-30T09:41:58.380Z,4.44
2018-12-30T09:45:05.367Z,4.44
2018-12-30T09:48:12.156Z,4.46
2018-12-30T09:51:19.987Z,4.52
2018-12-30T09:54:27.648Z,4.55
2018-12-30T09:57:34.628Z,4.46
2018-12-30T10:00:41.354Z,4.49
2018-12-30T10:03:49.176Z,4.55
2018-12-30T10:06:56.164Z,4.58
2018-12-30T10:10:03.074Z,4.63
2018-12-30T10:13:10.661Z,4.60
2018-12-30T10:16:17.363Z,4.60
2018-12-30T10:19:24.389Z,4.67
2018-12-30T10:22:31.110Z,4.66
2018-12-30T10:25:37.815Z,4.69
2018-12-30T10:28:44.799Z,4.73
2018-12-30T10:31:53.068Z,4.74
2018-12-30T10:35:00.290Z,4.72
2018-12-30T10:38:07.276Z,4.72
2018-12-30T10:41:14.196Z,4.75
2018-12-30T10:44:21.152Z,4.79
2018-12-30T10:47:28.129Z,4.76
2018-12-30T10:50:35.373Z,4.81
2018-12-30T10:53:42.319Z,4.77
2018-12-30T10:56:49.291Z,4.79
2018-12-30T10:59:56.183Z,4.82
2018-12-30T11:03:03.201Z,4.82
2018-12-30T11:06:10.404Z,4.76
2018-12-30T11:09:17.406Z,4.79
2018-12-30T11:12:24.902Z,4.80
2018-12-30T11:15:31.897Z,4.80
2018-12-30T11:18:38.628Z,4.79
2018-12-30T11:21:45.639Z,4.73
2018-12-30T11:24:52.376Z,4.80
2018-12-30T11:28:01.608Z,4.82
2018-12-30T11:31:08.518Z,4.81
2018-12-30T11:34:16.108Z,4.79
2018-12-30T11:37:37.220Z,4.79
2018-12-30T11:40:44.509Z,4.78
2018-12-30T11:43:51.482Z,4.77
2018-12-30T11:46:58.423Z,4.81
2018-12-30T11:50:06.377Z,4.83
2018-12-30T11:53:13.400Z,4.84
2018-12-30T11:56:20.379Z,4.90
2018-12-30T11:59:27.380Z,4.92
2018-12-30T12:02:36.084Z,4.92
2018-12-30T12:05:43.027Z,4.92
2018-12-30T12:09:04.180Z,4.90
2018-12-30T12:12:11.700Z,4.93
2018-12-30T12:15:18.935Z,4.99
2018-12-30T12:18:25.752Z,5.09
2018-12-30T12:21:32.721Z,5.11
2018-12-30T12:24:41.467Z,5.16
2018-12-30T12:27:48.239Z,5.13
2018-12-30T12:30:55.072Z,5.18
2018-12-30T12:34:02.081Z,5.17
2018-12-30T12:37:09.080Z,5.18
2018-12-30T12:40:16.053Z,5.21
2018-12-30T12:43:22.998Z,5.22
2018-12-30T12:46:29.773Z,5.29
2018-12-30T12:49:37.031Z,5.33
2018-12-30T12:52:44.033Z,5.31
2018-12-30T12:55:52.793Z,5.29
2018-12-30T12:58:59.474Z,5.30
2018-12-30T13:02:11.835Z,5.22
2018-12-30T13:05:18.893Z,5.22
2018-12-30T13:08:33.453Z,5.21
2018-12-30T13:11:41.236Z,5.20
2018-12-30T13:14:49.627Z,5.23
2018-12-30T13:18:16.391Z,5.28
2018-12-30T13:21:27.535Z,5.26
2018-12-30T13:24:40.117Z,5.26
2018-12-30T13:28:10.320Z,5.32
2018-12-30T13:31:18.841Z,5.36
2018-12-30T13:34:26.096Z,5.29
2018-12-30T13:37:33.267Z,5.31
2018-12-30T13:40:40.717Z,5.32
2018-12-30T13:43:48.105Z,5.39
2018-12-30T13:46:55.043Z,5.44
2018-12-30T13:50:02.294Z,5.46
2018-12-30T13:53:09.036Z,5.43
2018-12-30T13:56:16.042Z,5.48
2018-12-30T13:59:22.792Z,5.40
2018-12-30T14:02:29.827Z,5.36
2018-12-30T14:05:36.771Z,5.37
2018-12-30T14:08:44.280Z,5.34
2018-12-30T14:11:51.109Z,5.33
2018-12-30T14:14:57.832Z,5.28
2018-12-30T14:18:04.823Z,5.32
2018-12-30T14:21:11.532Z,5.28
2018-12-30T14:24:18.536Z,5.23
2018-12-30T14:27:25.446Z,5.20
2018-12-30T14:30:32.397Z,5.16
2018-12-30T14:33:39.306Z,5.13
2018-12-30T14:36:46.263Z,5.16
2018-12-30T14:39:54.644Z,5.09
2018-12-30T14:43:01.579Z,5.08
2018-12-30T14:46:08.520Z,5.04
2018-12-30T14:49:15.500Z,5.03
2018-12-30T14:52:22.394Z,5.04
2018-12-30T14:55:29.599Z,5.03
2018-12-30T14:58:36.572Z,5.03
2018-12-30T15:01:43.864Z,5.00
2018-12-30T15:04:51.106Z,4.97
2018-12-30T15:07:57.917Z,5.03
2018-12-30T15:11:04.972Z,4.99
2018-12-30T15:14:11.946Z,5.04
2018-12-30T15:17:18.840Z,4.96
2018-12-30T15:20:25.772Z,4.98
2018-12-30T15:23:33.027Z,5.03
2018-12-30T15:26:40.081Z,5.04
2018-12-30T15:29:50.323Z,5.01
2018-12-30T15:32:57.560Z,4.97
2018-12-30T15:36:04.400Z,4.98
2018-12-30T15:39:11.157Z,4.99
2018-12-30T15:42:18.980Z,4.97
2018-12-30T15:45:26.225Z,5.01
2018-12-30T15:48:33.145Z,4.94
2018-12-30T15:51:40.147Z,4.96
2018-12-30T15:54:46.888Z,4.97
2018-12-30T15:57:54.306Z,4.99
2018-12-30T16:01:01.240Z,4.94
2018-12-30T16:04:08.241Z,4.93
2018-12-30T16:07:15.181Z,4.96
2018-12-30T16:10:22.345Z,4.93
2018-12-30T16:13:29.316Z,4.94
2018-12-30T16:16:36.035Z,5.03
2018-12-30T16:19:42.743Z,4.97
2018-12-30T16:22:49.894Z,4.95
2018-12-30T16:25:56.807Z,5.00
2018-12-30T16:29:04.102Z,5.01
2018-12-30T16:32:11.152Z,5.00
2018-12-30T16:35:18.772Z,4.99
2018-12-30T16:38:26.690Z,5.02
2018-12-30T16:41:33.823Z,5.04
2018-12-30T16:44:41.024Z,4.98
2018-12-30T16:47:47.727Z,4.99
2018-12-30T16:50:54.576Z,5.03
2018-12-30T16:54:01.933Z,5.05
2018-12-30T16:57:08.636Z,5.15
2018-12-30T17:00:15.431Z,5.04
2018-12-30T17:03:25.140Z,5.08
2018-12-30T17:06:34.080Z,5.04
2018-12-30T17:09:40.783Z,5.05
2018-12-30T17:12:47.894Z,5.05
2018-12-30T17:15:57.845Z,5.02
2018-12-30T17:19:05.930Z,5.08
2018-12-30T17:22:12.987Z,5.04
2018-12-30T17:25:22.286Z,5.06
2018-12-30T17:28:29.227Z,5.06
2018-12-30T17:31:36.204Z,5.01
2018-12-30T17:34:42.916Z,5.01
2018-12-30T17:37:50.226Z,5.06
2018-12-30T17:41:01.543Z,5.07
2018-12-30T17:44:05.414Z,5.02
2018-12-30T17:47:13.744Z,5.07
2018-12-30T17:50:20.498Z,4.99
2018-12-30T17:53:27.283Z,5.03
2018-12-30T17:56:34.472Z,5.05
2018-12-30T17:59:41.393Z,5.09
2018-12-30T18:02:49.185Z,5.05
2018-12-30T18:05:56.072Z,5.03
2018-12-30T18:09:04.487Z,5.03
2018-12-30T18:12:11.218Z,4.97
2018-12-30T18:15:20.723Z,5.02
2018-12-30T18:18:29.828Z,5.00
2018-12-30T18:21:36.602Z,5.00
2018-12-30T18:24:54.201Z,5.04
2018-12-30T18:28:01.324Z,5.02
2018-12-30T18:31:08.219Z,4.99
2018-12-30T18:34:15.199Z,4.94
2018-12-30T18:37:22.683Z,4.94
2018-12-30T18:40:31.998Z,5.03
2018-12-30T18:43:38.676Z,4.99
2018-12-30T18:46:46.016Z,4.95
2018-12-30T18:49:53.734Z,4.99
2018-12-30T18:53:00.765Z,5.03
2018-12-30T18:56:07.684Z,5.05
2018-12-30T18:59:14.617Z,5.07
2018-12-30T19:02:21.509Z,5.04
2018-12-30T19:05:28.966Z,5.07
2018-12-30T19:08:35.855Z,5.09
2018-12-30T19:11:43.190Z,5.10
2018-12-30T19:14:50.168Z,5.08
2018-12-30T19:17:57.172Z,5.05
2018-12-30T19:21:03.839Z,5.11
2018-12-30T19:24:10.820Z,5.06
2018-12-30T19:27:17.771Z,5.04
2018-12-30T19:30:25.959Z,5.09
2018-12-30T19:33:33.035Z,5.02
2018-12-30T19:36:40.065Z,5.02
2018-12-30T19:39:47.020Z,4.99
2018-12-30T19:42:53.963Z,5.01
2018-12-30T19:46:01.981Z,5.00
2018-12-30T19:49:09.170Z,5.05
2018-12-30T19:52:16.454Z,5.04
2018-12-30T19:55:23.359Z,4.97
2018-12-30T19:58:30.390Z,4.95
2018-12-30T20:01:37.085Z,4.89
2018-12-30T20:04:44.580Z,4.88
2018-12-30T20:07:51.505Z,4.84
2018-12-30T20:10:58.385Z,4.83
2018-12-30T20:14:05.312Z,4.81
2018-12-30T20:17:15.048Z,4.79
2018-12-30T20:20:21.977Z,4.82
2018-12-30T20:23:31.692Z,4.82
2018-12-30T20:26:38.712Z,4.82
2018-12-30T20:29:45.613Z,4.80
2018-12-30T20:32:53.003Z,4.82
2018-12-30T20:35:59.675Z,4.78
2018-12-30T20:39:09.196Z,4.73
2018-12-30T20:42:15.982Z,4.66
2018-12-30T20:45:23.185Z,4.65
2018-12-30T20:48:37.126Z,4.58
2018-12-30T20:51:49.688Z,4.59
2018-12-30T20:55:04.631Z,4.52
2018-12-30T20:58:12.165Z,4.50
2018-12-30T21:01:24.474Z,4.43
2018-12-30T21:04:36.632Z,4.35
2018-12-30T21:07:44.181Z,4.40
2018-12-30T21:10:52.850Z,4.34
2018-12-30T21:14:03.504Z,4.35
2018-12-30T21:17:10.580Z,4.36
2018-12-30T21:20:17.626Z,4.39
2018-12-30T21:23:24.870Z,4.39
2018-12-30T21:26:31.843Z,4.38
2018-12-30T21:29:45.140Z,4.33
2018-12-30T21:32:53.372Z,4.30
2018-12-30T21:36:00.284Z,4.30
2018-12-30T21:39:09.807Z,4.28
2018-12-30T21:42:19.077Z,4.30
2018-12-30T21:45:26.006Z,4.29
2018-12-30T21:48:33.231Z,4.28
2018-12-30T21:51:40.190Z,4.31
2018-12-30T21:54:47.356Z,4.28
2018-12-30T21:57:55.576Z,4.28
2018-12-30T22:01:02.655Z,4.30
2018-12-30T22:04:09.583Z,4.29
2018-12-30T22:07:16.303Z,4.31
2018-12-30T22:10:23.354Z,4.30
2018-12-30T22:13:30.371Z,4.30
2018-12-30T22:16:37.246Z,4.29
2018-12-30T22:19:44.568Z,4.27
2018-12-30T22:22:51.316Z,4.32
2018-12-30T22:25:58.756Z,4.32
2018-12-30T22:29:05.539Z,4.31
2018-12-30T22:32:12.437Z,4.30
2018-12-30T22:35:19.541Z,4.28
2018-12-30T22:38:26.527Z,4.30
2018-12-30T22:41:33.222Z,4.33
2018-12-30T22:44:40.011Z,4.30
2018-12-30T22:47:47.161Z,4.22
2018-12-30T22:50:54.112Z,4.25
2018-12-30T22:54:01.925Z,4.24
2018-12-30T22:57:08.859Z,4.23
2018-12-30T23:00:39.802Z,4.21
2018-12-30T23:03:46.931Z,4.24
2018-12-30T23:06:54.023Z,4.24
2018-12-30T23:10:03.561Z,4.25
2018-12-30T23:13:10.522Z,4.29
2018-12-30T23:16:17.449Z,4.19
2018-12-30T23:19:24.346Z,4.20
2018-12-30T23:22:31.586Z,4.22
2018-12-30T23:25:38.527Z,4.20
2018-12-30T23:28:45.261Z,4.24
2018-12-30T23:31:52.199Z,4.17
2018-12-30T23:34:59.123Z,4.18
2018-12-30T23:38:06.024Z,4.14
2018-12-30T23:41:15.474Z,4.13
2018-12-30T23:44:22.460Z,4.11
2018-12-30T23:47:30.137Z,4.11
2018-12-30T23:50:37.226Z,4.09
2018-12-30T23:53:44.184Z,4.10
2018-12-30T23:56:51.095Z,4.10
2018-12-30T23:59:58.049Z,4.12
